Keighley, United Kingdom
Current Conditions -  °F | °C
As of 5:50 PM on Saturday 22 Nov 2014 (Local Time) from EGNM Reporting Station
Clear Clear  
Wind Chill: 46°   Ceiling: Unl
Heat Index: 46°   Visibility: 6mi
Dew Point: 45°   Wind: 2mph
Humidity: 93%   Direction: NA
Pressure: 29.88"   Gusts: NA
Location:  53.87°N, 1.91°W
Report Text: EGNM 221750Z VRB02KT CAVOK 08/07 Q1012
Loading
Personal Weather Stations






























Interactive Weather Map New forecast layout! Learn more

10-Day Weather Forecast

Advertisements
Track Severe Weather on mobile